Time;durP1;ratioP1;P1;durP2;ratioP2;P2;SDS_P1;SDS_P2;PMS_P1;PMS_P2;Temp;Humidity;BMP_temperature;BMP_pressure;BME280_temperature;BME280_humidity;BME280_pressure;Samples;Min_cycle;Max_cycle;Signal;HPM_P1;HPM_P2
2023/05/31 00:00:03;;;;;;;;;3.67;3.67;;;;;;;;5055908;28;45457;-80
2023/05/31 00:02:29;;;;;;;;;9.00;4.75;;;;;;;;5055637;28;45857;-80
2023/05/31 00:04:54;;;;;;;;;7.00;3.00;;;;;;;;5055011;28;45360;-81
2023/05/31 00:07:19;;;;;;;;;6.00;5.00;;;;;;;;5055717;28;45320;-80
2023/05/31 00:09:44;;;;;;;;;6.50;5.00;;;;;;;;5055360;28;45497;-81
2023/05/31 00:12:09;;;;;;;;;4.00;3.00;;;;;;;;5055590;28;45353;-81
2023/05/31 00:14:35;;;;;;;;;7.67;4.00;;;;;;;;5055466;28;45404;-81
2023/05/31 00:17:00;;;;;;;;;6.00;4.00;;;;;;;;5055635;28;45399;-80
2023/05/31 00:19:25;;;;;;;;;8.00;4.00;;;;;;;;5055185;28;45504;-81
2023/05/31 00:21:50;;;;;;;;;6.67;4.00;;;;;;;;5055775;28;46339;-80
2023/05/31 00:24:16;;;;;;;;;6.00;3.33;;;;;;;;5056127;28;45336;-81
2023/05/31 00:26:41;;;;;;;;;6.25;6.25;;;;;;;;5055863;28;45415;-80
2023/05/31 00:29:06;;;;;;;;;5.00;4.00;;;;;;;;5056001;28;45343;-81
2023/05/31 00:31:31;;;;;;;;;6.00;4.00;;;;;;;;5055797;28;45415;-81
2023/05/31 00:33:57;;;;;;;;;7.67;5.00;;;;;;;;5055140;28;45427;-81
2023/05/31 00:36:22;;;;;;;;;6.00;4.25;;;;;;;;5055442;28;45431;-81
2023/05/31 00:38:47;;;;;;;;;3.50;3.50;;;;;;;;5055654;28;45630;-81
2023/05/31 00:41:13;;;;;;;;;5.00;4.00;;;;;;;;5055304;28;45541;-81
2023/05/31 00:43:38;;;;;;;;;8.33;4.00;;;;;;;;5055420;28;45367;-80
2023/05/31 00:46:04;;;;;;;;;6.67;4.67;;;;;;;;5055417;28;45442;-81
2023/05/31 00:48:29;;;;;;;;;5.75;4.00;;;;;;;;5055062;28;45522;-80
2023/05/31 00:50:55;;;;;;;;;6.00;4.50;;;;;;;;5036993;28;47876;-81
2023/05/31 00:53:21;;;;;;;;;7.75;4.75;;;;;;;;5055328;28;45375;-80
2023/05/31 00:55:46;;;;;;;;;3.00;2.00;;;;;;;;5055268;28;45384;-81
2023/05/31 00:58:12;;;;;;;;;7.50;5.00;;;;;;;;5055164;28;45308;-80
2023/05/31 01:00:37;;;;;;;;;3.67;3.00;;;;;;;;5055127;28;46485;-81
2023/05/31 01:03:03;;;;;;;;;7.25;4.50;;;;;;;;5055154;28;45451;-81
2023/05/31 01:05:29;;;;;;;;;6.00;5.00;;;;;;;;5058828;28;45499;-80
2023/05/31 01:07:54;;;;;;;;;7.25;4.00;;;;;;;;5058491;28;45543;-81
2023/05/31 01:10:20;;;;;;;;;6.00;4.75;;;;;;;;5058520;28;46048;-81
2023/05/31 01:12:56;;;;;;;;;6.00;3.00;;;;;;;;5058402;28;45349;-81
2023/05/31 01:15:21;;;;;;;;;11.25;4.75;;;;;;;;5058315;28;45465;-81
2023/05/31 01:17:49;;;;;;;;;8.75;4.75;;;;;;;;5058339;28;45292;-81
2023/05/31 01:20:17;;;;;;;;;5.25;5.25;;;;;;;;5040047;28;47321;-81
2023/05/31 01:22:42;;;;;;;;;7.00;5.75;;;;;;;;5058275;28;45746;-81
2023/05/31 01:25:26;;;;;;;;;7.00;4.33;;;;;;;;5058165;28;45248;-80
2023/05/31 01:27:53;;;;;;;;;5.75;4.00;;;;;;;;5058437;28;45582;-81
2023/05/31 01:30:19;;;;;;;;;6.25;6.25;;;;;;;;5058022;28;46530;-81
2023/05/31 01:32:45;;;;;;;;;7.50;3.75;;;;;;;;5057823;28;45910;-81
2023/05/31 01:35:10;;;;;;;;;7.25;4.50;;;;;;;;5057977;28;45484;-80
2023/05/31 01:37:36;;;;;;;;;10.50;5.50;;;;;;;;5058136;28;45381;-80
2023/05/31 01:40:03;;;;;;;;;8.67;5.33;;;;;;;;5057869;28;45640;-81
2023/05/31 01:42:29;;;;;;;;;7.50;6.50;;;;;;;;5057801;28;45549;-80
2023/05/31 01:44:54;;;;;;;;;6.00;3.00;;;;;;;;5057532;28;45377;-80
2023/05/31 01:47:21;;;;;;;;;7.75;4.00;;;;;;;;5057762;28;45329;-80
2023/05/31 01:49:46;;;;;;;;;6.50;3.50;;;;;;;;5057507;28;45730;-81
2023/05/31 01:52:13;;;;;;;;;5.50;4.00;;;;;;;;5057961;28;45367;-81
2023/05/31 01:54:38;;;;;;;;;9.75;5.75;;;;;;;;5057532;28;45310;-81
2023/05/31 01:57:05;;;;;;;;;8.00;7.00;;;;;;;;5057751;28;45303;-80
2023/05/31 01:59:31;;;;;;;;;5.00;4.00;;;;;;;;5057139;28;47109;-81
2023/05/31 02:01:57;;;;;;;;;6.50;6.00;;;;;;;;5057627;28;45395;-81
2023/05/31 02:04:22;;;;;;;;;7.50;6.50;;;;;;;;5057857;28;45406;-81
2023/05/31 02:06:47;;;;;;;;;8.33;6.00;;;;;;;;5057609;28;45341;-80
2023/05/31 02:09:13;;;;;;;;;8.33;5.00;;;;;;;;5039327;28;47204;-81
2023/05/31 02:11:38;;;;;;;;;12.50;5.75;;;;;;;;5057833;28;45360;-81
2023/05/31 02:14:03;;;;;;;;;6.00;5.00;;;;;;;;5057712;28;45480;-81
2023/05/31 02:16:28;;;;;;;;;7.25;3.75;;;;;;;;5056932;28;45376;-80
2023/05/31 02:18:55;;;;;;;;;6.33;5.00;;;;;;;;5057465;28;46073;-81
2023/05/31 02:21:21;;;;;;;;;5.50;3.25;;;;;;;;5057568;28;45351;-81
2023/05/31 02:23:46;;;;;;;;;5.00;4.00;;;;;;;;5057724;28;45309;-81
2023/05/31 02:26:11;;;;;;;;;5.33;5.33;;;;;;;;5057760;28;45326;-81
2023/05/31 02:28:36;;;;;;;;;6.00;4.00;;;;;;;;5057177;28;46533;-80
2023/05/31 02:31:01;;;;;;;;;7.67;4.67;;;;;;;;5057573;28;45460;-80
2023/05/31 02:33:27;;;;;;;;;11.67;4.67;;;;;;;;5057552;28;45367;-80
2023/05/31 02:35:52;;;;;;;;;7.00;5.25;;;;;;;;5056955;28;45528;-80
2023/05/31 02:38:21;;;;;;;;;11.25;5.25;;;;;;;;5057124;28;45340;-81
2023/05/31 02:40:46;;;;;;;;;5.75;5.00;;;;;;;;5057307;28;45326;-80
2023/05/31 02:43:12;;;;;;;;;11.75;3.75;;;;;;;;5056656;28;45363;-80
2023/05/31 02:45:37;;;;;;;;;3.00;3.00;;;;;;;;5057121;28;45512;-81
2023/05/31 02:48:05;;;;;;;;;10.33;5.00;;;;;;;;5056791;28;45566;-81
2023/05/31 02:50:30;;;;;;;;;11.25;4.75;;;;;;;;5056771;28;45725;-81
2023/05/31 02:52:55;;;;;;;;;9.25;5.00;;;;;;;;5057236;28;45256;-81
2023/05/31 02:55:20;;;;;;;;;12.00;6.67;;;;;;;;5056767;28;45484;-81
2023/05/31 02:57:46;;;;;;;;;10.00;6.00;;;;;;;;5056706;28;46214;-81
2023/05/31 03:00:12;;;;;;;;;6.00;5.00;;;;;;;;5056851;28;45327;-81
2023/05/31 03:02:38;;;;;;;;;9.00;6.00;;;;;;;;5038689;28;45190;-81
2023/05/31 03:05:04;;;;;;;;;8.00;6.75;;;;;;;;5056744;28;45324;-81
2023/05/31 03:07:29;;;;;;;;;10.00;4.00;;;;;;;;5056373;28;46731;-81
2023/05/31 03:09:55;;;;;;;;;10.67;6.00;;;;;;;;5056663;28;45573;-81
2023/05/31 03:12:20;;;;;;;;;6.00;4.25;;;;;;;;5056416;28;45411;-80
2023/05/31 03:14:45;;;;;;;;;8.33;4.00;;;;;;;;5056334;28;45388;-81
2023/05/31 03:17:11;;;;;;;;;6.33;4.33;;;;;;;;5056192;28;45556;-81
2023/05/31 03:19:36;;;;;;;;;7.67;5.00;;;;;;;;5056434;28;45597;-81
2023/05/31 03:22:01;;;;;;;;;4.33;4.00;;;;;;;;5056483;28;45317;-81
2023/05/31 03:24:27;;;;;;;;;9.67;5.33;;;;;;;;5056461;28;45382;-81
2023/05/31 03:26:52;;;;;;;;;8.00;4.00;;;;;;;;5055446;28;47108;-81
2023/05/31 03:29:18;;;;;;;;;11.00;6.33;;;;;;;;5056179;28;45348;-81
2023/05/31 03:31:43;;;;;;;;;6.33;5.00;;;;;;;;5056485;28;45344;-81
2023/05/31 03:34:08;;;;;;;;;10.33;4.33;;;;;;;;5056242;28;45398;-81
2023/05/31 03:36:33;;;;;;;;;9.00;6.00;;;;;;;;5055779;28;45484;-81
2023/05/31 03:38:58;;;;;;;;;5.33;5.33;;;;;;;;5056029;28;45402;-81
2023/05/31 03:41:24;;;;;;;;;8.33;4.00;;;;;;;;5055754;28;45283;-81
2023/05/31 03:43:50;;;;;;;;;5.00;5.00;;;;;;;;5056227;28;45365;-81
2023/05/31 03:46:15;;;;;;;;;7.00;5.75;;;;;;;;5055540;28;45478;-81
2023/05/31 03:48:40;;;;;;;;;11.00;5.33;;;;;;;;5055992;28;45488;-81
2023/05/31 03:51:06;;;;;;;;;7.00;5.00;;;;;;;;5056202;28;45463;-81
2023/05/31 03:53:31;;;;;;;;;9.33;4.33;;;;;;;;5056205;28;45256;-81
2023/05/31 03:55:56;;;;;;;;;8.00;5.33;;;;;;;;5056216;28;45394;-80
2023/05/31 03:58:21;;;;;;;;;11.00;5.00;;;;;;;;5056270;28;45347;-81
2023/05/31 04:00:46;;;;;;;;;6.67;5.67;;;;;;;;5056507;28;45339;-80
2023/05/31 04:03:13;;;;;;;;;8.50;6.00;;;;;;;;5056026;28;45320;-81
2023/05/31 04:05:38;;;;;;;;;13.25;5.00;;;;;;;;5055579;28;45585;-81
2023/05/31 04:08:04;;;;;;;;;7.00;5.00;;;;;;;;5054527;28;45313;-81
2023/05/31 04:10:30;;;;;;;;;9.75;5.75;;;;;;;;5055613;28;45450;-81
2023/05/31 04:12:55;;;;;;;;;10.25;6.25;;;;;;;;5055828;28;45489;-82
2023/05/31 04:15:20;;;;;;;;;8.50;4.25;;;;;;;;5055832;28;45440;-81
2023/05/31 04:17:46;;;;;;;;;8.00;5.33;;;;;;;;5055935;28;45363;-81
2023/05/31 04:20:12;;;;;;;;;7.00;6.67;;;;;;;;5056119;28;45407;-81
2023/05/31 04:22:37;;;;;;;;;3.25;2.25;;;;;;;;5055892;28;45346;-81
2023/05/31 04:25:02;;;;;;;;;7.33;6.00;;;;;;;;5055262;28;46666;-81
2023/05/31 04:27:28;;;;;;;;;14.33;7.33;;;;;;;;5055529;28;45317;-81
2023/05/31 04:29:53;;;;;;;;;10.25;7.00;;;;;;;;5055704;28;45359;-81
2023/05/31 04:32:21;;;;;;;;;12.50;6.00;;;;;;;;5054455;28;45498;-81
2023/05/31 04:34:47;;;;;;;;;4.50;4.00;;;;;;;;5055270;28;45307;-81
2023/05/31 04:37:13;;;;;;;;;7.00;4.75;;;;;;;;5055543;28;45678;-82
2023/05/31 04:39:38;;;;;;;;;7.00;5.25;;;;;;;;5058215;28;45347;-81
2023/05/31 04:42:05;;;;;;;;;11.67;6.00;;;;;;;;5058822;28;45494;-81
2023/05/31 04:44:31;;;;;;;;;9.00;5.00;;;;;;;;5058983;28;46182;-81
2023/05/31 04:46:57;;;;;;;;;10.00;7.00;;;;;;;;5058780;28;45900;-81
2023/05/31 04:49:22;;;;;;;;;4.50;4.50;;;;;;;;5059269;28;45504;-81
2023/05/31 04:51:47;;;;;;;;;5.75;3.75;;;;;;;;5058738;28;45763;-81
2023/05/31 04:54:12;;;;;;;;;10.50;4.00;;;;;;;;5058528;28;45437;-81
2023/05/31 04:56:38;;;;;;;;;9.00;5.00;;;;;;;;5058590;28;45353;-81
2023/05/31 04:59:03;;;;;;;;;7.00;7.00;;;;;;;;5058927;28;45386;-81
2023/05/31 05:01:28;;;;;;;;;6.67;6.00;;;;;;;;5058871;28;45503;-81
2023/05/31 05:03:53;;;;;;;;;8.00;4.75;;;;;;;;5058311;28;45546;-81
2023/05/31 05:06:19;;;;;;;;;5.67;5.00;;;;;;;;5058688;28;45459;-81
2023/05/31 05:08:45;;;;;;;;;5.25;4.00;;;;;;;;5058291;28;45464;-81
2023/05/31 05:11:10;;;;;;;;;6.00;6.00;;;;;;;;5058648;28;45886;-81
2023/05/31 05:13:36;;;;;;;;;10.25;6.00;;;;;;;;5058441;28;46540;-82
2023/05/31 05:16:02;;;;;;;;;8.50;4.00;;;;;;;;5040056;28;45715;-81
2023/05/31 05:18:27;;;;;;;;;8.50;6.00;;;;;;;;5058646;28;45425;-81
2023/05/31 05:20:52;;;;;;;;;7.50;6.50;;;;;;;;5040351;28;45412;-81
2023/05/31 05:23:18;;;;;;;;;10.00;5.00;;;;;;;;5039252;28;47280;-81
2023/05/31 05:25:43;;;;;;;;;6.67;5.67;;;;;;;;5058420;28;45455;-81
2023/05/31 05:28:08;;;;;;;;;4.00;3.00;;;;;;;;5058587;28;45323;-81
2023/05/31 05:30:33;;;;;;;;;9.00;7.33;;;;;;;;5058197;28;45547;-81
2023/05/31 05:32:58;;;;;;;;;12.33;5.00;;;;;;;;5058239;28;46558;-81
2023/05/31 05:35:24;;;;;;;;;8.33;3.33;;;;;;;;5058110;28;45405;-81
2023/05/31 05:37:49;;;;;;;;;3.33;3.00;;;;;;;;5058019;28;45446;-81
2023/05/31 05:40:14;;;;;;;;;11.25;5.50;;;;;;;;5070850;28;45279;-81
2023/05/31 05:42:40;;;;;;;;;11.00;4.00;;;;;;;;5063690;28;45465;-82
2023/05/31 05:45:08;;;;;;;;;9.75;5.00;;;;;;;;5057918;28;45888;-81
2023/05/31 05:47:34;;;;;;;;;8.50;4.00;;;;;;;;5058432;28;45323;-81
2023/05/31 05:50:00;;;;;;;;;6.75;6.00;;;;;;;;5057698;28;45448;-81
2023/05/31 05:52:25;;;;;;;;;6.75;4.50;;;;;;;;5057777;28;45589;-81
2023/05/31 05:54:50;;;;;;;;;6.67;4.00;;;;;;;;5058204;28;45817;-82
2023/05/31 05:57:16;;;;;;;;;7.33;4.33;;;;;;;;5058167;28;45325;-82
2023/05/31 05:59:42;;;;;;;;;6.00;5.00;;;;;;;;5058228;28;45202;-81
2023/05/31 06:02:07;;;;;;;;;7.00;7.00;;;;;;;;5058009;28;45425;-82
2023/05/31 06:04:32;;;;;;;;;4.33;4.33;;;;;;;;5056498;28;45590;-81
2023/05/31 06:06:57;;;;;;;;;9.25;5.25;;;;;;;;5057263;28;45365;-82
2023/05/31 06:09:22;;;;;;;;;5.00;3.33;;;;;;;;5057828;28;45462;-82
2023/05/31 06:11:48;;;;;;;;;4.00;4.00;;;;;;;;5057642;28;46486;-82
2023/05/31 06:14:13;;;;;;;;;8.33;5.00;;;;;;;;5057473;28;45625;-82
2023/05/31 06:16:38;;;;;;;;;5.50;2.25;;;;;;;;5057690;28;45388;-82
2023/05/31 06:19:03;;;;;;;;;3.00;3.00;;;;;;;;5057446;28;45403;-82
2023/05/31 06:21:28;;;;;;;;;7.00;5.00;;;;;;;;5057030;28;45360;-82
2023/05/31 06:23:54;;;;;;;;;5.67;4.00;;;;;;;;5057446;28;45249;-81
2023/05/31 06:26:19;;;;;;;;;4.25;4.00;;;;;;;;5057509;28;45313;-82
2023/05/31 06:28:45;;;;;;;;;5.00;3.50;;;;;;;;5039219;28;45493;-82
2023/05/31 06:31:10;;;;;;;;;4.50;4.50;;;;;;;;5057300;28;47340;-82
2023/05/31 06:33:35;;;;;;;;;8.67;5.33;;;;;;;;5039386;28;45366;-83
2023/05/31 06:36:00;;;;;;;;;8.67;4.67;;;;;;;;5056969;28;45309;-82
2023/05/31 06:38:25;;;;;;;;;5.00;4.00;;;;;;;;5056795;28;45522;-81
2023/05/31 06:40:52;;;;;;;;;5.00;4.00;;;;;;;;5056761;28;45432;-81
2023/05/31 06:43:17;;;;;;;;;4.75;4.25;;;;;;;;5057108;28;45397;-81
2023/05/31 06:45:42;;;;;;;;;6.67;5.00;;;;;;;;5056279;28;45471;-83
2023/05/31 06:48:10;;;;;;;;;8.25;4.50;;;;;;;;5056849;28;45444;-82
2023/05/31 06:50:36;;;;;;;;;6.50;3.75;;;;;;;;5056386;28;45517;-83
2023/05/31 06:53:01;;;;;;;;;6.00;4.50;;;;;;;;5038124;28;46063;-81
2023/05/31 06:55:26;;;;;;;;;3.00;3.00;;;;;;;;5056843;28;45352;-82
2023/05/31 06:57:51;;;;;;;;;7.67;5.67;;;;;;;;5056469;28;45520;-82
2023/05/31 07:00:17;;;;;;;;;10.67;5.00;;;;;;;;5047350;28;45761;-81
2023/05/31 07:02:42;;;;;;;;;4.00;3.00;;;;;;;;5053874;28;45468;-81
2023/05/31 07:05:08;;;;;;;;;10.00;3.67;;;;;;;;5054925;28;45381;-81
2023/05/31 07:07:33;;;;;;;;;6.75;4.00;;;;;;;;5056836;28;45485;-81
2023/05/31 07:09:58;;;;;;;;;7.00;5.00;;;;;;;;5055637;28;45333;-81
2023/05/31 07:12:23;;;;;;;;;6.00;4.00;;;;;;;;5056527;28;45283;-80
2023/05/31 07:14:48;;;;;;;;;6.33;4.00;;;;;;;;5056415;28;45218;-81
2023/05/31 07:17:14;;;;;;;;;9.33;4.00;;;;;;;;5038422;28;45471;-80
2023/05/31 07:19:45;;;;;;;;;5.00;3.00;;;;;;;;5056157;28;45484;-81
2023/05/31 07:22:12;;;;;;;;;6.25;5.00;;;;;;;;5069024;28;45264;-82
2023/05/31 07:24:37;;;;;;;;;4.75;4.75;;;;;;;;5057126;28;45341;-82
2023/05/31 07:27:02;;;;;;;;;5.00;4.00;;;;;;;;5056679;28;45438;-82
2023/05/31 07:29:27;;;;;;;;;5.50;5.00;;;;;;;;5056216;28;46554;-82
2023/05/31 07:31:53;;;;;;;;;6.00;4.00;;;;;;;;5056372;28;45284;-81
2023/05/31 07:34:18;;;;;;;;;5.67;5.33;;;;;;;;5038060;28;45273;-82
2023/05/31 07:36:43;;;;;;;;;6.33;5.00;;;;;;;;5038057;28;45598;-82
2023/05/31 07:39:10;;;;;;;;;5.33;4.00;;;;;;;;5053391;28;46286;-82
2023/05/31 07:41:35;;;;;;;;;3.00;3.00;;;;;;;;5056268;28;45377;-81
2023/05/31 07:44:01;;;;;;;;;6.00;5.00;;;;;;;;5054850;28;46896;-81
2023/05/31 07:46:26;;;;;;;;;4.75;3.00;;;;;;;;5055902;28;45405;-82
2023/05/31 07:48:53;;;;;;;;;7.25;5.00;;;;;;;;5055218;28;47620;-81
2023/05/31 07:51:19;;;;;;;;;5.00;3.75;;;;;;;;5054158;28;45508;-80
2023/05/31 07:53:44;;;;;;;;;5.00;5.00;;;;;;;;5055524;28;45384;-81
2023/05/31 07:56:09;;;;;;;;;4.50;3.50;;;;;;;;5055849;28;45411;-81
2023/05/31 07:58:35;;;;;;;;;4.00;2.67;;;;;;;;5055382;28;46786;-79
2023/05/31 08:01:00;;;;;;;;;7.33;4.67;;;;;;;;5055188;28;45474;-81
2023/05/31 08:03:26;;;;;;;;;2.00;2.00;;;;;;;;5055372;28;45343;-82
2023/05/31 08:05:52;;;;;;;;;5.00;2.75;;;;;;;;5037793;28;45333;-83
2023/05/31 08:08:17;;;;;;;;;6.00;3.00;;;;;;;;5051644;28;46672;-82
2023/05/31 08:10:43;;;;;;;;;6.00;2.75;;;;;;;;5055428;28;45451;-83
2023/05/31 08:13:08;;;;;;;;;5.00;3.00;;;;;;;;5055392;28;45575;-82
2023/05/31 08:15:33;;;;;;;;;4.00;3.25;;;;;;;;5051814;28;45590;-83
2023/05/31 08:17:59;;;;;;;;;5.33;3.00;;;;;;;;5052870;28;46296;-83
2023/05/31 08:20:24;;;;;;;;;6.67;3.33;;;;;;;;5055477;28;45255;-83
2023/05/31 08:22:50;;;;;;;;;6.75;2.25;;;;;;;;5055461;28;45325;-82
2023/05/31 08:25:16;;;;;;;;;4.25;3.25;;;;;;;;5055435;28;45302;-82
2023/05/31 08:27:42;;;;;;;;;6.00;3.00;;;;;;;;5055439;28;46098;-82
2023/05/31 08:30:09;;;;;;;;;3.75;3.00;;;;;;;;5055277;28;45585;-82
2023/05/31 08:32:34;;;;;;;;;6.00;2.75;;;;;;;;5054968;28;45491;-82
2023/05/31 08:34:59;;;;;;;;;7.50;3.00;;;;;;;;5055435;28;45363;-83
2023/05/31 08:37:25;;;;;;;;;1.00;1.00;;;;;;;;5055253;28;45483;-82
2023/05/31 08:39:50;;;;;;;;;5.00;3.00;;;;;;;;5054916;28;45285;-82
2023/05/31 08:42:18;;;;;;;;;7.33;4.00;;;;;;;;5054081;28;45519;-82
2023/05/31 08:44:43;;;;;;;;;4.25;3.25;;;;;;;;5047183;28;45676;-82
2023/05/31 08:47:19;;;;;;;;;4.75;3.00;;;;;;;;5052878;28;45510;-82
2023/05/31 08:49:45;;;;;;;;;6.25;4.00;;;;;;;;5052180;28;45396;-83
2023/05/31 08:52:11;;;;;;;;;5.25;2.75;;;;;;;;5054035;28;45388;-82
2023/05/31 08:54:37;;;;;;;;;3.75;3.00;;;;;;;;5054122;28;45483;-82
2023/05/31 08:57:03;;;;;;;;;6.25;3.75;;;;;;;;5054279;28;46277;-82
2023/05/31 08:59:28;;;;;;;;;7.75;3.50;;;;;;;;5032073;28;45408;-82
2023/05/31 09:01:54;;;;;;;;;3.75;2.75;;;;;;;;5059400;28;45441;-80
2023/05/31 09:04:19;;;;;;;;;3.75;2.25;;;;;;;;5069064;28;45539;-83
2023/05/31 09:06:45;;;;;;;;;5.25;4.00;;;;;;;;5053674;28;45328;-83
2023/05/31 09:09:10;;;;;;;;;4.75;2.75;;;;;;;;5054231;28;45500;-81
2023/05/31 09:11:40;;;;;;;;;4.00;4.00;;;;;;;;5052019;28;45507;-81
2023/05/31 09:14:06;;;;;;;;;3.75;3.00;;;;;;;;5047090;28;45451;-83
2023/05/31 09:16:31;;;;;;;;;6.75;2.00;;;;;;;;5045239;28;46253;-82
2023/05/31 09:19:04;;;;;;;;;4.75;2.00;;;;;;;;5050415;28;45324;-83
2023/05/31 09:21:37;;;;;;;;;4.00;4.00;;;;;;;;5053709;28;45318;-84
2023/05/31 09:24:02;;;;;;;;;4.00;3.00;;;;;;;;5044551;28;45780;-82
2023/05/31 09:26:28;;;;;;;;;4.00;3.00;;;;;;;;5053523;28;46712;-82
2023/05/31 09:28:54;;;;;;;;;2.75;2.00;;;;;;;;5057109;28;45624;-81
2023/05/31 09:31:20;;;;;;;;;2.50;2.50;;;;;;;;5056957;28;45738;-83
2023/05/31 09:33:47;;;;;;;;;6.25;3.25;;;;;;;;5056470;28;45513;-83
2023/05/31 09:36:13;;;;;;;;;5.00;4.00;;;;;;;;5054249;28;46429;-82
2023/05/31 09:38:39;;;;;;;;;6.25;3.25;;;;;;;;5055603;28;45429;-83
2023/05/31 09:41:12;;;;;;;;;3.00;3.00;;;;;;;;5057574;28;45438;-82
2023/05/31 09:43:43;;;;;;;;;2.50;2.50;;;;;;;;5046958;28;45436;-82
2023/05/31 09:46:13;;;;;;;;;4.50;2.25;;;;;;;;5056368;28;46320;-81
2023/05/31 09:48:38;;;;;;;;;4.75;3.00;;;;;;;;5056943;28;45783;-82
2023/05/31 09:51:06;;;;;;;;;3.75;1.75;;;;;;;;5056532;28;45439;-81
2023/05/31 09:53:31;;;;;;;;;4.00;2.75;;;;;;;;5055864;28;45632;-81
2023/05/31 09:55:57;;;;;;;;;5.00;2.00;;;;;;;;5053076;28;45700;-82
2023/05/31 09:58:30;;;;;;;;;4.25;3.00;;;;;;;;5048221;28;45582;-82
2023/05/31 10:00:58;;;;;;;;;4.25;3.00;;;;;;;;5052930;28;45446;-82
2023/05/31 10:03:24;;;;;;;;;3.25;2.00;;;;;;;;5054725;28;45516;-82
2023/05/31 10:05:49;;;;;;;;;3.75;2.75;;;;;;;;5056705;28;45918;-82
2023/05/31 10:08:14;;;;;;;;;4.67;2.00;;;;;;;;5053045;28;45358;-83
2023/05/31 10:10:40;;;;;;;;;3.50;2.00;;;;;;;;5053664;28;45654;-83
2023/05/31 10:13:05;;;;;;;;;2.67;2.00;;;;;;;;5055578;28;45315;-82
2023/05/31 10:15:31;;;;;;;;;2.00;1.00;;;;;;;;5053245;28;45356;-83
2023/05/31 10:17:56;;;;;;;;;3.00;2.00;;;;;;;;5056531;28;45497;-83
2023/05/31 10:20:24;;;;;;;;;4.00;2.67;;;;;;;;5053554;28;45582;-83
2023/05/31 10:22:52;;;;;;;;;2.75;2.25;;;;;;;;5053364;28;45548;-84
2023/05/31 10:25:21;;;;;;;;;2.75;2.75;;;;;;;;5057035;28;46076;-83
2023/05/31 10:27:49;;;;;;;;;4.75;2.75;;;;;;;;5046708;28;45890;-82
2023/05/31 10:30:17;;;;;;;;;2.25;2.25;;;;;;;;5053508;28;45409;-82
2023/05/31 10:32:45;;;;;;;;;4.75;0.00;;;;;;;;5056428;28;45297;-81
2023/05/31 10:35:10;;;;;;;;;4.00;3.00;;;;;;;;5051125;28;47117;-81
2023/05/31 10:37:36;;;;;;;;;2.00;2.00;;;;;;;;5055844;28;45499;-82
2023/05/31 10:40:10;;;;;;;;;3.50;3.00;;;;;;;;5055897;28;45591;-82
2023/05/31 10:42:39;;;;;;;;;1.75;1.50;;;;;;;;5056648;28;45567;-83
2023/05/31 10:45:22;;;;;;;;;2.25;1.25;;;;;;;;5054683;28;46763;-82
2023/05/31 10:47:53;;;;;;;;;1.75;1.25;;;;;;;;5056089;28;45657;-81
2023/05/31 10:50:20;;;;;;;;;2.00;2.00;;;;;;;;5067752;28;45311;-84
2023/05/31 10:52:51;;;;;;;;;3.00;0.50;;;;;;;;5058514;28;45494;-82
2023/05/31 10:55:18;;;;;;;;;2.00;2.00;;;;;;;;5038241;28;46789;-81
2023/05/31 10:57:43;;;;;;;;;4.25;1.25;;;;;;;;5051938;28;45527;-82
2023/05/31 11:00:11;;;;;;;;;0.75;0.75;;;;;;;;5049945;28;45599;-83
2023/05/31 11:02:37;;;;;;;;;5.25;2.00;;;;;;;;5056425;28;45565;-82
2023/05/31 11:05:19;;;;;;;;;5.00;3.00;;;;;;;;5055932;28;45418;-83
2023/05/31 11:07:44;;;;;;;;;3.00;2.00;;;;;;;;5056832;28;45381;-84
2023/05/31 11:10:23;;;;;;;;;1.00;1.00;;;;;;;;5056118;28;45402;-84
2023/05/31 11:12:48;;;;;;;;;3.00;2.00;;;;;;;;5038683;28;45777;-83
2023/05/31 11:15:14;;;;;;;;;5.00;2.00;;;;;;;;5055601;28;46730;-85
2023/05/31 11:17:41;;;;;;;;;7.00;2.25;;;;;;;;5054550;28;45387;-84
2023/05/31 11:20:06;;;;;;;;;2.00;2.00;;;;;;;;5038260;28;45492;-84
2023/05/31 11:22:32;;;;;;;;;2.25;2.00;;;;;;;;5037848;28;45523;-84
2023/05/31 11:25:00;;;;;;;;;4.00;2.00;;;;;;;;5055081;28;45697;-85
2023/05/31 11:27:35;;;;;;;;;1.00;1.00;;;;;;;;5054034;28;45288;-82
2023/05/31 11:30:01;;;;;;;;;4.00;2.00;;;;;;;;5045505;28;45367;-81
2023/05/31 11:32:46;;;;;;;;;5.25;2.00;;;;;;;;5055904;28;45740;-84
2023/05/31 11:35:15;;;;;;;;;5.50;3.00;;;;;;;;5030168;28;46378;-85
2023/05/31 11:37:42;;;;;;;;;3.75;1.00;;;;;;;;5049707;28;45754;-84
2023/05/31 11:40:08;;;;;;;;;7.75;2.00;;;;;;;;5039124;28;45340;-84
2023/05/31 11:42:47;;;;;;;;;2.00;2.00;;;;;;;;5056863;28;45508;-87
2023/05/31 11:45:22;;;;;;;;;4.75;2.00;;;;;;;;5055657;28;45615;-86
2023/05/31 11:48:17;;;;;;;;;5.00;3.00;;;;;;;;5047513;28;45638;-88
2023/05/31 11:50:45;;;;;;;;;2.50;2.00;;;;;;;;5050125;28;45523;-89
2023/05/31 11:53:13;;;;;;;;;3.00;1.50;;;;;;;;5039577;28;45779;-94
2023/05/31 11:55:47;;;;;;;;;1.00;1.00;;;;;;;;5057174;28;46455;-90
2023/05/31 11:58:32;;;;;;;;;1.00;1.00;;;;;;;;5054171;28;45800;-89
2023/05/31 12:01:01;;;;;;;;;2.00;1.00;;;;;;;;5043656;28;45688;-86
2023/05/31 12:03:27;;;;;;;;;3.00;2.00;;;;;;;;5043704;28;45548;-86
2023/05/31 12:05:56;;;;;;;;;3.00;2.00;;;;;;;;5048523;28;45496;-92
2023/05/31 12:08:34;;;;;;;;;2.50;2.00;;;;;;;;5026417;28;46000;-87
2023/05/31 12:11:03;;;;;;;;;4.25;2.00;;;;;;;;5055582;28;45515;-93
2023/05/31 12:13:29;;;;;;;;;1.00;1.00;;;;;;;;5055481;28;45543;-93
2023/05/31 12:15:57;;;;;;;;;1.50;1.25;;;;;;;;5033426;28;46884;-91
2023/05/31 12:18:23;;;;;;;;;2.00;1.00;;;;;;;;5055781;28;45514;-92
2023/05/31 12:20:48;;;;;;;;;0.50;0.50;;;;;;;;5057223;28;45387;-95
2023/05/31 12:23:18;;;;;;;;;1.50;1.50;;;;;;;;5039382;28;45400;-94
2023/05/31 12:25:46;;;;;;;;;0.75;0.75;;;;;;;;5052466;28;45470;-89
2023/05/31 12:28:11;;;;;;;;;2.25;2.25;;;;;;;;5047665;28;45424;-92
2023/05/31 12:30:47;;;;;;;;;2.75;2.75;;;;;;;;5038021;28;45376;-89
2023/05/31 12:33:12;;;;;;;;;1.00;1.00;;;;;;;;5055812;28;45377;-87
2023/05/31 12:35:44;;;;;;;;;2.75;2.00;;;;;;;;5053514;28;45337;-87
2023/05/31 12:38:10;;;;;;;;;4.25;3.00;;;;;;;;5035204;28;45985;-87
2023/05/31 12:40:39;;;;;;;;;5.25;3.75;;;;;;;;5057137;28;45416;-89
2023/05/31 12:43:05;;;;;;;;;4.75;2.50;;;;;;;;5066187;28;45413;-90
2023/05/31 12:45:31;;;;;;;;;3.25;2.00;;;;;;;;5052362;28;47251;-88
2023/05/31 12:47:59;;;;;;;;;2.00;2.00;;;;;;;;5053492;28;45429;-89
2023/05/31 12:50:27;;;;;;;;;3.00;2.00;;;;;;;;5050541;28;45589;-88
2023/05/31 12:52:56;;;;;;;;;5.00;3.00;;;;;;;;5054247;28;45451;-87
2023/05/31 12:55:22;;;;;;;;;3.00;2.00;;;;;;;;5035056;28;47440;-88
2023/05/31 12:57:47;;;;;;;;;5.00;2.00;;;;;;;;5075581;22;45848;-86
2023/05/31 13:00:12;;;;;;;;;4.25;2.00;;;;;;;;5063930;27;45887;-88
2023/05/31 13:02:38;;;;;;;;;3.50;2.00;;;;;;;;5056781;28;45345;-88
2023/05/31 13:05:06;;;;;;;;;3.00;2.00;;;;;;;;5049297;28;45574;-88
2023/05/31 13:07:32;;;;;;;;;1.75;1.75;;;;;;;;5055759;28;45501;-86
2023/05/31 13:09:57;;;;;;;;;5.00;1.00;;;;;;;;5056435;28;45331;-87
2023/05/31 13:12:22;;;;;;;;;2.00;2.00;;;;;;;;5056496;28;45513;-87
2023/05/31 13:14:48;;;;;;;;;4.67;1.33;;;;;;;;5057023;28;46858;-86
2023/05/31 13:17:14;;;;;;;;;5.00;2.00;;;;;;;;5044679;28;45467;-89
2023/05/31 13:19:40;;;;;;;;;5.25;2.00;;;;;;;;5058882;28;45306;-90
2023/05/31 13:22:05;;;;;;;;;2.33;2.00;;;;;;;;5055902;28;45447;-89
2023/05/31 13:24:30;;;;;;;;;4.50;2.50;;;;;;;;5056630;28;48508;-89
2023/05/31 13:26:56;;;;;;;;;3.00;1.00;;;;;;;;5059413;28;45402;-90
2023/05/31 13:29:22;;;;;;;;;2.00;2.00;;;;;;;;5056106;28;46498;-89
2023/05/31 13:31:48;;;;;;;;;1.75;1.25;;;;;;;;5056326;28;45499;-87
2023/05/31 13:34:13;;;;;;;;;1.00;1.00;;;;;;;;5055805;28;47401;-88
2023/05/31 13:36:39;;;;;;;;;1.50;1.50;;;;;;;;5044994;28;45790;-90
2023/05/31 13:39:04;;;;;;;;;4.00;1.75;;;;;;;;5055755;28;45457;-89
2023/05/31 13:41:30;;;;;;;;;1.67;1.67;;;;;;;;5056572;28;45448;-86
2023/05/31 13:43:55;;;;;;;;;2.00;2.00;;;;;;;;5057397;28;46002;-88
2023/05/31 13:46:20;;;;;;;;;3.00;1.00;;;;;;;;5056948;28;45376;-89
2023/05/31 13:48:45;;;;;;;;;2.00;1.33;;;;;;;;5056610;28;45520;-87
2023/05/31 13:51:15;;;;;;;;;2.33;1.00;;;;;;;;5046333;28;45529;-86
2023/05/31 13:53:41;;;;;;;;;1.50;1.00;;;;;;;;5056918;28;46455;-89
2023/05/31 13:56:08;;;;;;;;;3.25;1.00;;;;;;;;5060398;28;45937;-88
2023/05/31 13:58:34;;;;;;;;;1.75;1.25;;;;;;;;5057031;27;45415;-88
2023/05/31 14:00:59;;;;;;;;;0.75;0.75;;;;;;;;5055622;28;45702;-91
2023/05/31 14:03:24;;;;;;;;;2.00;1.00;;;;;;;;5056484;28;46950;-91
2023/05/31 14:05:50;;;;;;;;;0.75;0.00;;;;;;;;5057128;28;45529;-90
2023/05/31 14:08:15;;;;;;;;;0.25;0.25;;;;;;;;5058042;28;46017;-91
2023/05/31 14:10:41;;;;;;;;;2.00;1.00;;;;;;;;5056550;28;45583;-88
2023/05/31 14:13:06;;;;;;;;;2.00;1.00;;;;;;;;5058250;28;45974;-89
2023/05/31 14:15:31;;;;;;;;;3.00;1.75;;;;;;;;5057274;28;45459;-90
2023/05/31 14:17:57;;;;;;;;;0.33;0.33;;;;;;;;5059287;28;45402;-89
2023/05/31 14:20:22;;;;;;;;;2.00;1.00;;;;;;;;5055974;28;45375;-88
2023/05/31 14:22:47;;;;;;;;;4.75;1.00;;;;;;;;5065410;28;47265;-90
2023/05/31 14:25:13;;;;;;;;;2.00;0.00;;;;;;;;5057674;27;45569;-89
2023/05/31 14:27:38;;;;;;;;;1.50;1.50;;;;;;;;5058382;28;45523;-88
2023/05/31 14:30:04;;;;;;;;;1.67;1.67;;;;;;;;5066733;28;45530;-89
2023/05/31 14:32:30;;;;;;;;;1.75;1.25;;;;;;;;5062568;27;46438;-90
2023/05/31 14:34:55;;;;;;;;;0.75;0.75;;;;;;;;5058130;28;45270;-91